createdAt,value
2019-05-22T00:02:25.134Z,14.63
2019-05-22T00:05:03.543Z,14.68
2019-05-22T00:07:37.001Z,14.70
2019-05-22T00:10:11.035Z,14.69
2019-05-22T00:12:46.962Z,14.66
2019-05-22T00:15:18.900Z,14.67
2019-05-22T00:17:51.784Z,14.69
2019-05-22T00:20:27.348Z,14.69
2019-05-22T00:22:59.663Z,14.65
2019-05-22T00:25:33.506Z,14.71
2019-05-22T00:28:07.015Z,14.72
2019-05-22T00:30:42.123Z,14.69
2019-05-22T00:33:15.030Z,14.62
2019-05-22T00:35:47.435Z,14.54
2019-05-22T00:38:21.380Z,14.49
2019-05-22T00:41:03.567Z,14.57
2019-05-22T00:43:42.160Z,14.62
2019-05-22T00:46:19.068Z,14.61
2019-05-22T00:48:54.278Z,14.53
2019-05-22T00:51:41.031Z,14.47
2019-05-22T00:54:38.879Z,14.45
2019-05-22T00:57:39.807Z,14.44
2019-05-22T01:00:30.958Z,14.46
2019-05-22T01:03:05.777Z,14.49
2019-05-22T01:05:41.797Z,14.56
2019-05-22T01:08:16.934Z,14.60
2019-05-22T01:10:53.149Z,14.63
2019-05-22T01:13:27.897Z,14.62
2019-05-22T01:16:01.601Z,14.55
2019-05-22T01:18:36.011Z,14.46
2019-05-22T01:21:10.488Z,14.37
2019-05-22T01:23:43.767Z,14.37
2019-05-22T01:26:19.370Z,14.39
2019-05-22T01:28:53.773Z,14.40
2019-05-22T01:31:42.146Z,14.41
2019-05-22T01:34:20.943Z,14.42
2019-05-22T01:36:56.711Z,14.41
2019-05-22T01:40:09.373Z,14.42
2019-05-22T01:42:45.220Z,14.41
2019-05-22T01:45:18.744Z,14.45
2019-05-22T01:47:56.946Z,14.42
2019-05-22T01:50:57.687Z,14.41
2019-05-22T01:53:36.163Z,14.44
2019-05-22T01:56:11.766Z,14.41
2019-05-22T01:58:45.390Z,14.42
2019-05-22T02:01:22.224Z,14.46
2019-05-22T02:03:56.821Z,14.47
2019-05-22T02:06:30.194Z,14.50
2019-05-22T02:09:17.274Z,14.55
2019-05-22T02:11:54.464Z,14.62
2019-05-22T02:14:27.686Z,14.61
2019-05-22T02:17:01.440Z,14.64
2019-05-22T02:19:33.968Z,14.63
2019-05-22T02:22:06.931Z,14.72
2019-05-22T02:24:39.396Z,14.83
2019-05-22T02:27:13.939Z,14.79
2019-05-22T02:29:47.466Z,14.68
2019-05-22T02:32:20.933Z,14.52
2019-05-22T02:34:54.245Z,14.35
2019-05-22T02:37:27.533Z,14.23
2019-05-22T02:40:00.019Z,14.09
2019-05-22T02:42:33.190Z,13.93
2019-05-22T02:45:08.265Z,14.16
2019-05-22T02:47:40.862Z,14.37
2019-05-22T02:50:14.102Z,14.83
2019-05-22T02:52:46.129Z,15.11
2019-05-22T02:55:19.229Z,15.26
2019-05-22T02:57:52.033Z,15.21
2019-05-22T03:00:26.720Z,14.80
2019-05-22T03:03:01.765Z,14.55
2019-05-22T03:05:33.975Z,14.48
2019-05-22T03:08:07.258Z,14.33
2019-05-22T03:10:38.907Z,14.26
2019-05-22T03:13:12.698Z,14.23
2019-05-22T03:15:45.499Z,14.19
2019-05-22T03:18:21.719Z,14.24
2019-05-22T03:20:53.817Z,14.19
2019-05-22T03:23:43.746Z,14.21
2019-05-22T03:26:17.054Z,14.20
2019-05-22T03:28:49.766Z,14.14
2019-05-22T03:31:23.419Z,14.11
2019-05-22T03:33:56.512Z,14.26
2019-05-22T03:36:29.160Z,14.94
2019-05-22T03:39:01.767Z,15.35
2019-05-22T03:41:35.842Z,15.82
2019-05-22T03:44:07.381Z,16.03
2019-05-22T03:46:45.826Z,16.35
2019-05-22T03:49:30.052Z,16.47
2019-05-22T03:51:56.428Z,16.50
2019-05-22T03:54:30.145Z,16.52
2019-05-22T03:57:02.096Z,16.48
2019-05-22T03:59:34.650Z,16.40
2019-05-22T04:02:08.757Z,16.38
2019-05-22T04:04:42.565Z,15.78
2019-05-22T04:07:19.398Z,15.73
2019-05-22T04:09:53.613Z,15.77
2019-05-22T04:12:27.037Z,15.74
2019-05-22T04:15:11.163Z,15.77
2019-05-22T04:17:44.438Z,15.97
2019-05-22T04:20:25.440Z,16.21
2019-05-22T04:22:59.020Z,16.43
2019-05-22T04:25:34.894Z,16.63
2019-05-22T04:28:07.779Z,16.81
2019-05-22T04:30:40.018Z,16.95
2019-05-22T04:33:13.001Z,17.11
2019-05-22T04:35:44.930Z,17.20
2019-05-22T04:38:17.143Z,17.30
2019-05-22T04:40:55.743Z,17.46
2019-05-22T04:43:32.202Z,17.63
2019-05-22T04:46:10.031Z,17.77
2019-05-22T04:48:46.152Z,17.91
2019-05-22T04:51:29.167Z,18.10
2019-05-22T04:54:01.563Z,18.24
2019-05-22T04:56:34.099Z,18.50
2019-05-22T04:59:06.948Z,18.72
2019-05-22T05:01:39.241Z,18.95
2019-05-22T05:04:14.267Z,19.23
2019-05-22T05:06:46.589Z,19.48
2019-05-22T05:09:19.749Z,19.85
2019-05-22T05:11:54.099Z,20.17
2019-05-22T05:14:26.471Z,20.48
2019-05-22T05:16:59.242Z,20.56
2019-05-22T05:19:33.182Z,19.90
2019-05-22T05:22:05.306Z,19.85
2019-05-22T05:24:44.357Z,19.87
2019-05-22T05:27:16.800Z,19.98
2019-05-22T05:29:49.328Z,20.54
2019-05-22T05:32:21.046Z,20.70
2019-05-22T05:34:59.491Z,21.14
2019-05-22T05:37:32.194Z,20.92
2019-05-22T05:40:39.669Z,21.15
2019-05-22T05:43:14.464Z,21.38
2019-05-22T05:45:50.075Z,21.93
2019-05-22T05:48:24.416Z,22.16
2019-05-22T05:51:27.631Z,22.44
2019-05-22T05:54:05.847Z,22.90
2019-05-22T05:56:41.055Z,23.11
2019-05-22T05:59:14.172Z,23.40
2019-05-22T06:01:56.037Z,23.36
2019-05-22T06:04:35.477Z,23.34
2019-05-22T06:07:26.893Z,22.82
2019-05-22T06:10:31.522Z,22.34
2019-05-22T06:13:05.362Z,22.22
2019-05-22T06:15:59.163Z,22.45
2019-05-22T06:18:36.522Z,22.73
2019-05-22T06:21:10.024Z,23.08
2019-05-22T06:24:19.149Z,22.94
2019-05-22T06:27:27.203Z,23.66
2019-05-22T06:30:07.292Z,22.93
2019-05-22T06:33:18.137Z,23.06
2019-05-22T06:35:51.587Z,22.74
2019-05-22T06:39:05.113Z,22.79
2019-05-22T06:41:38.698Z,23.07
2019-05-22T06:44:42.722Z,23.28
2019-05-22T06:47:22.117Z,23.09
2019-05-22T06:49:58.663Z,23.11
2019-05-22T06:52:30.915Z,22.45
2019-05-22T06:55:03.516Z,23.05
2019-05-22T06:57:36.222Z,23.81
2019-05-22T07:00:28.708Z,23.03
2019-05-22T07:03:02.042Z,23.14
2019-05-22T07:05:34.035Z,22.80
2019-05-22T07:08:07.316Z,23.42
2019-05-22T07:10:41.428Z,23.61
2019-05-22T07:13:14.320Z,24.48
2019-05-22T07:15:50.484Z,24.50
2019-05-22T07:18:26.804Z,24.30
2019-05-22T07:20:59.741Z,23.51
2019-05-22T07:23:33.056Z,23.88
2019-05-22T07:26:06.113Z,23.92
2019-05-22T07:28:39.990Z,24.25
2019-05-22T07:31:11.779Z,25.01
2019-05-22T07:33:44.078Z,25.30
2019-05-22T07:36:17.551Z,25.75
2019-05-22T07:38:50.292Z,26.21
2019-05-22T07:41:23.872Z,26.61
2019-05-22T07:43:55.324Z,24.69
2019-05-22T07:46:30.782Z,24.77
2019-05-22T07:49:01.925Z,25.36
2019-05-22T07:51:51.406Z,25.94
2019-05-22T07:54:09.437Z,25.45
2019-05-22T07:56:42.974Z,25.55
2019-05-22T07:59:15.344Z,25.93
2019-05-22T08:01:47.896Z,25.29
2019-05-22T08:04:20.905Z,24.69
2019-05-22T08:06:53.873Z,25.41
2019-05-22T08:09:28.063Z,25.22
2019-05-22T08:12:01.208Z,24.95
2019-05-22T08:18:22.068Z,24.96
2019-05-22T08:20:54.039Z,25.78
2019-05-22T08:23:27.898Z,26.01
2019-05-22T08:26:00.753Z,25.65
2019-05-22T08:28:33.686Z,25.60
2019-05-22T08:31:07.686Z,25.78
2019-05-22T08:33:40.121Z,26.34
2019-05-22T08:36:12.533Z,25.30
2019-05-22T08:38:45.889Z,26.10
2019-05-22T08:41:22.834Z,26.63
2019-05-22T08:44:14.747Z,26.10
2019-05-22T08:46:30.205Z,25.98
2019-05-22T08:49:03.240Z,26.35
2019-05-22T08:51:35.787Z,26.61
2019-05-22T08:54:08.141Z,26.69
2019-05-22T08:56:43.905Z,26.10
2019-05-22T08:59:19.860Z,26.69
2019-05-22T09:01:57.694Z,27.14
2019-05-22T09:04:30.016Z,26.80
2019-05-22T09:07:02.064Z,27.40
2019-05-22T09:09:34.784Z,27.56
2019-05-22T09:12:08.519Z,27.71
2019-05-22T09:14:40.889Z,27.87
2019-05-22T09:17:17.262Z,27.76
2019-05-22T09:19:49.015Z,27.82
2019-05-22T09:22:21.329Z,27.52
2019-05-22T09:24:54.131Z,27.97
2019-05-22T09:27:26.379Z,28.43
2019-05-22T09:29:58.651Z,27.35
2019-05-22T09:32:31.117Z,27.31
2019-05-22T09:35:03.327Z,28.08
2019-05-22T09:37:35.847Z,27.42
2019-05-22T09:40:10.208Z,27.32
2019-05-22T09:42:43.306Z,26.78
2019-05-22T09:45:19.004Z,27.27
2019-05-22T09:47:54.181Z,27.50
2019-05-22T09:50:26.297Z,27.38
2019-05-22T09:53:23.863Z,28.14
2019-05-22T09:55:56.058Z,27.84
2019-05-22T09:58:28.985Z,27.70
2019-05-22T10:01:01.935Z,27.74
2019-05-22T10:03:34.236Z,28.12
2019-05-22T10:06:07.385Z,27.45
2019-05-22T10:08:42.854Z,27.06
2019-05-22T10:11:17.953Z,27.98
2019-05-22T10:13:55.503Z,28.55
2019-05-22T10:16:27.564Z,28.83
2019-05-22T10:19:00.255Z,28.89
2019-05-22T10:21:32.455Z,29.37
2019-05-22T10:24:05.799Z,28.70
2019-05-22T10:26:38.152Z,28.13
2019-05-22T10:29:10.678Z,28.20
2019-05-22T10:31:43.206Z,27.90
2019-05-22T10:34:15.466Z,28.80
2019-05-22T10:36:48.074Z,28.24
2019-05-22T10:39:24.617Z,28.16
2019-05-22T10:41:58.361Z,27.55
2019-05-22T10:44:30.934Z,27.60
2019-05-22T10:47:02.627Z,28.00
2019-05-22T10:49:36.325Z,28.32
2019-05-22T10:52:08.909Z,27.90
2019-05-22T10:54:40.819Z,28.15
2019-05-22T10:57:14.192Z,27.73
2019-05-22T10:59:46.383Z,28.59
2019-05-22T11:02:18.811Z,28.04
2019-05-22T11:04:53.938Z,28.24
2019-05-22T11:07:26.343Z,27.88
2019-05-22T11:09:59.555Z,28.41
2019-05-22T11:12:32.671Z,28.08
2019-05-22T11:15:09.432Z,28.79
2019-05-22T11:17:41.850Z,29.17
2019-05-22T11:20:14.553Z,28.91
2019-05-22T11:22:46.906Z,29.16
2019-05-22T11:25:20.550Z,29.24
2019-05-22T11:27:53.502Z,29.64
2019-05-22T11:30:26.189Z,29.17
2019-05-22T11:32:58.496Z,28.65
2019-05-22T11:35:34.143Z,27.62
2019-05-22T11:38:13.000Z,27.63
2019-05-22T11:40:56.598Z,27.02
2019-05-22T11:43:35.643Z,26.61
2019-05-22T11:46:11.546Z,26.80
2019-05-22T11:48:43.316Z,26.24
2019-05-22T11:51:17.360Z,26.28
2019-05-22T11:53:49.881Z,25.96
2019-05-22T11:56:21.958Z,25.99
2019-05-22T11:58:54.840Z,25.90
2019-05-22T12:01:26.319Z,25.50
2019-05-22T12:04:01.004Z,25.33
2019-05-22T12:06:35.871Z,25.11
2019-05-22T12:09:10.108Z,24.76
2019-05-22T12:11:43.402Z,24.90
2019-05-22T12:14:17.328Z,24.63
2019-05-22T12:16:53.306Z,24.76
2019-05-22T12:19:30.067Z,25.01
2019-05-22T12:22:05.666Z,25.08
2019-05-22T12:25:01.727Z,24.67
2019-05-22T12:27:38.522Z,24.43
2019-05-22T12:30:15.051Z,24.80
2019-05-22T12:32:50.380Z,25.08
2019-05-22T12:35:48.744Z,24.80
2019-05-22T12:38:28.601Z,25.27
2019-05-22T12:41:15.448Z,25.28
2019-05-22T12:43:54.560Z,25.15
2019-05-22T12:46:28.654Z,25.56
2019-05-22T12:49:08.376Z,25.32
2019-05-22T12:51:39.613Z,25.27
2019-05-22T12:54:19.403Z,25.24
2019-05-22T12:57:04.483Z,25.41
2019-05-22T12:59:43.708Z,25.32
2019-05-22T13:02:26.376Z,25.32
2019-05-22T13:05:13.979Z,24.84
2019-05-22T13:09:08.952Z,24.52
2019-05-22T13:15:43.226Z,24.55
2019-05-22T13:18:22.034Z,24.44
2019-05-22T13:20:55.170Z,24.40
2019-05-22T13:23:34.326Z,24.56
2019-05-22T13:26:06.819Z,24.22
2019-05-22T13:28:43.212Z,23.87
2019-05-22T13:31:16.903Z,23.57
2019-05-22T13:33:53.031Z,23.62
2019-05-22T13:36:25.347Z,23.37
2019-05-22T13:38:57.974Z,23.46
2019-05-22T13:41:30.450Z,23.31
2019-05-22T13:44:03.973Z,23.30
2019-05-22T13:46:37.047Z,23.27
2019-05-22T13:49:08.589Z,23.04
2019-05-22T13:51:41.737Z,22.99
2019-05-22T13:54:14.947Z,22.93
2019-05-22T13:57:04.545Z,22.90
2019-05-22T13:59:37.987Z,22.73
2019-05-22T14:02:09.967Z,22.50
2019-05-22T14:04:42.712Z,22.66
2019-05-22T14:07:15.221Z,22.68
2019-05-22T14:09:47.366Z,22.85
2019-05-22T14:12:20.290Z,23.00
2019-05-22T14:14:52.915Z,22.91
2019-05-22T14:17:25.472Z,23.09
2019-05-22T14:19:58.407Z,23.03
2019-05-22T14:22:30.096Z,22.92
2019-05-22T14:25:02.551Z,22.91
2019-05-22T14:27:34.966Z,22.90
2019-05-22T14:30:07.916Z,22.96
2019-05-22T14:32:40.441Z,23.04
2019-05-22T14:35:14.001Z,22.97
2019-05-22T14:37:46.350Z,22.88
2019-05-22T14:40:20.265Z,22.79
2019-05-22T14:42:51.837Z,22.69
2019-05-22T14:45:24.790Z,22.88
2019-05-22T14:48:00.201Z,22.90
2019-05-22T14:50:33.377Z,22.87
2019-05-22T14:53:05.822Z,22.94
2019-05-22T14:55:39.186Z,22.93
2019-05-22T14:58:12.824Z,22.96
2019-05-22T15:00:45.103Z,23.02
2019-05-22T15:03:19.056Z,22.86
2019-05-22T15:05:52.026Z,22.71
2019-05-22T15:08:24.086Z,22.66
2019-05-22T15:10:57.777Z,22.67
2019-05-22T15:13:30.818Z,22.57
2019-05-22T15:16:02.465Z,22.36
2019-05-22T15:18:34.818Z,22.46
2019-05-22T15:21:08.472Z,22.37
2019-05-22T15:23:41.947Z,22.41
2019-05-22T15:26:15.021Z,22.32
2019-05-22T15:28:47.334Z,22.26
2019-05-22T15:31:19.877Z,22.15
2019-05-22T15:33:52.250Z,22.26
2019-05-22T15:36:25.261Z,22.19
2019-05-22T15:38:58.157Z,22.13
2019-05-22T15:41:30.438Z,22.14
2019-05-22T15:44:02.516Z,22.09
2019-05-22T15:46:35.135Z,22.09
2019-05-22T15:49:09.044Z,22.06
2019-05-22T15:51:42.835Z,22.07
2019-05-22T15:54:18.036Z,21.98
2019-05-22T15:56:52.951Z,21.83
2019-05-22T15:59:27.972Z,21.81
2019-05-22T16:02:05.235Z,21.65
2019-05-22T16:04:41.416Z,21.70
2019-05-22T16:07:15.271Z,21.74
2019-05-22T16:09:50.714Z,21.80
2019-05-22T16:12:25.377Z,21.72
2019-05-22T16:14:57.572Z,21.70
2019-05-22T16:17:32.716Z,21.69
2019-05-22T16:20:05.350Z,21.65
2019-05-22T16:22:37.855Z,21.72
2019-05-22T16:25:11.460Z,21.64
2019-05-22T16:27:45.772Z,21.60
2019-05-22T16:30:21.504Z,21.42
2019-05-22T16:32:56.328Z,21.34
2019-05-22T16:35:28.485Z,21.25
2019-05-22T16:38:06.925Z,21.08
2019-05-22T16:40:45.586Z,21.01
2019-05-22T16:43:24.136Z,20.86
2019-05-22T16:45:56.769Z,20.86
2019-05-22T16:48:32.760Z,20.77
2019-05-22T16:51:05.249Z,20.58
2019-05-22T16:53:40.652Z,20.46
2019-05-22T16:56:13.055Z,20.40
2019-05-22T16:58:47.108Z,20.37
2019-05-22T17:01:24.457Z,20.35
2019-05-22T17:03:59.835Z,20.27
2019-05-22T17:06:33.510Z,20.32
2019-05-22T17:09:08.897Z,20.18
2019-05-22T17:11:42.627Z,20.09
2019-05-22T17:14:17.935Z,19.99
2019-05-22T17:16:52.976Z,19.91
2019-05-22T17:19:27.567Z,19.88
2019-05-22T17:22:00.173Z,19.80
2019-05-22T17:24:34.309Z,19.68
2019-05-22T17:27:08.244Z,19.63
2019-05-22T17:29:41.572Z,19.56
2019-05-22T17:32:26.793Z,19.48
2019-05-22T17:35:00.370Z,19.32
2019-05-22T17:37:34.075Z,19.26
2019-05-22T17:40:08.853Z,19.16
2019-05-22T17:42:41.350Z,19.05
2019-05-22T17:45:16.708Z,19.01
2019-05-22T17:47:50.135Z,18.94
2019-05-22T17:50:26.853Z,18.83
2019-05-22T17:52:58.854Z,18.75
2019-05-22T17:55:32.189Z,18.69
2019-05-22T17:58:06.198Z,18.62
2019-05-22T18:00:41.335Z,18.58
2019-05-22T18:03:13.296Z,18.49
2019-05-22T18:05:45.400Z,18.49
2019-05-22T18:08:18.150Z,18.44
2019-05-22T18:10:51.206Z,18.36
2019-05-22T18:13:24.074Z,18.25
2019-05-22T18:15:59.448Z,18.16
2019-05-22T18:18:31.625Z,18.19
2019-05-22T18:21:04.259Z,18.17
2019-05-22T18:23:36.143Z,18.10
2019-05-22T18:26:08.584Z,18.00
2019-05-22T18:28:42.108Z,17.94
2019-05-22T18:31:24.335Z,17.93
2019-05-22T18:33:56.899Z,17.88
2019-05-22T18:36:28.486Z,17.84
2019-05-22T18:39:30.354Z,17.69
2019-05-22T18:42:04.962Z,17.55
2019-05-22T18:44:46.708Z,17.60
2019-05-22T18:47:26.556Z,17.60
2019-05-22T18:50:02.292Z,17.44
2019-05-22T18:52:40.982Z,17.47
2019-05-22T18:55:27.682Z,17.36
2019-05-22T18:58:02.162Z,17.30
2019-05-22T19:00:37.222Z,17.22
2019-05-22T19:03:13.310Z,17.20
2019-05-22T19:05:45.447Z,17.21
2019-05-22T19:08:23.912Z,17.23
2019-05-22T19:10:56.419Z,17.24
2019-05-22T19:13:28.037Z,17.20
2019-05-22T19:16:04.264Z,17.16
2019-05-22T19:18:40.679Z,17.14
2019-05-22T19:21:17.497Z,17.08
2019-05-22T19:23:50.119Z,17.04
2019-05-22T19:26:23.499Z,17.01
2019-05-22T19:28:59.078Z,16.98
2019-05-22T19:31:31.585Z,16.93
2019-05-22T19:34:03.280Z,16.88
2019-05-22T19:36:36.631Z,16.87
2019-05-22T19:39:10.379Z,16.83
2019-05-22T19:41:42.664Z,16.77
2019-05-22T19:44:15.595Z,16.77
2019-05-22T19:46:48.426Z,16.72
2019-05-22T19:49:20.973Z,16.79
2019-05-22T19:51:54.162Z,16.85
2019-05-22T19:54:26.874Z,16.83
2019-05-22T19:57:04.742Z,16.82
2019-05-22T19:59:38.330Z,16.78
2019-05-22T20:02:12.464Z,16.73
2019-05-22T20:04:44.815Z,16.67
2019-05-22T20:07:18.117Z,16.66
2019-05-22T20:09:51.515Z,16.69
2019-05-22T20:12:24.944Z,16.68
2019-05-22T20:14:58.590Z,16.62
2019-05-22T20:17:30.562Z,16.67
2019-05-22T20:20:02.360Z,16.61
2019-05-22T20:22:35.018Z,16.55
2019-05-22T20:25:08.883Z,16.47
2019-05-22T20:27:41.697Z,16.41
2019-05-22T20:30:15.826Z,16.43
2019-05-22T20:32:47.718Z,16.39
2019-05-22T20:35:20.504Z,16.40
2019-05-22T20:37:52.471Z,16.38
2019-05-22T20:40:25.157Z,16.38
2019-05-22T20:42:58.133Z,16.32
2019-05-22T20:45:30.710Z,16.22
2019-05-22T20:48:12.489Z,16.19
2019-05-22T20:50:44.816Z,16.18
2019-05-22T20:53:17.401Z,16.13
2019-05-22T20:55:50.453Z,16.12
2019-05-22T20:58:24.081Z,16.10
2019-05-22T21:00:55.726Z,16.06
2019-05-22T21:03:27.795Z,16.05
2019-05-22T21:06:00.179Z,16.05
2019-05-22T21:08:33.455Z,16.04
2019-05-22T21:11:08.831Z,16.06
2019-05-22T21:13:40.918Z,16.10
2019-05-22T21:16:14.806Z,16.10
2019-05-22T21:18:51.873Z,16.11
2019-05-22T21:21:25.652Z,16.11
2019-05-22T21:24:10.599Z,15.93
2019-05-22T21:26:32.041Z,15.92
2019-05-22T21:29:05.122Z,15.93
2019-05-22T21:31:38.117Z,15.94
2019-05-22T21:34:10.208Z,15.88
2019-05-22T21:36:42.816Z,15.81
2019-05-22T21:39:31.627Z,15.77
2019-05-22T21:42:29.980Z,15.71
2019-05-22T21:45:27.723Z,15.70
2019-05-22T21:48:41.770Z,15.71
2019-05-22T21:51:37.585Z,15.71
2019-05-22T21:54:49.708Z,15.69
2019-05-22T21:57:28.093Z,15.58
2019-05-22T22:00:00.997Z,15.53
2019-05-22T22:02:51.064Z,15.54
2019-05-22T22:08:54.231Z,15.49
2019-05-22T22:11:29.406Z,15.53
2019-05-22T22:14:01.621Z,15.51
2019-05-22T22:16:33.660Z,15.48
2019-05-22T22:19:07.612Z,15.47
2019-05-22T22:21:40.842Z,15.45
2019-05-22T22:24:14.801Z,15.40
2019-05-22T22:26:50.769Z,15.44
2019-05-22T22:29:23.328Z,15.43
2019-05-22T22:31:58.640Z,15.42
2019-05-22T22:34:47.641Z,15.42
2019-05-22T22:37:19.936Z,15.36
2019-05-22T22:39:56.727Z,15.41
2019-05-22T22:42:31.705Z,15.46
2019-05-22T22:45:06.286Z,15.56
2019-05-22T22:47:41.106Z,15.60
2019-05-22T22:50:14.014Z,15.51
2019-05-22T22:52:48.891Z,15.49
2019-05-22T22:55:23.410Z,15.55
2019-05-22T22:57:56.800Z,15.59
2019-05-22T23:00:40.238Z,15.48
2019-05-22T23:03:14.352Z,15.47
2019-05-22T23:05:49.522Z,15.41
2019-05-22T23:08:26.161Z,15.39
2019-05-22T23:10:57.769Z,15.39
2019-05-22T23:13:30.910Z,15.36
2019-05-22T23:16:04.655Z,15.28
2019-05-22T23:19:31.462Z,15.43
2019-05-22T23:22:03.577Z,15.34
2019-05-22T23:24:39.075Z,15.35
2019-05-22T23:27:13.631Z,15.37
2019-05-22T23:29:46.265Z,15.40
2019-05-22T23:32:21.214Z,15.28
2019-05-22T23:34:54.935Z,15.28
2019-05-22T23:37:27.812Z,15.31
2019-05-22T23:40:00.212Z,15.29
2019-05-22T23:42:39.767Z,15.36
2019-05-22T23:45:17.020Z,15.50
2019-05-22T23:48:17.582Z,15.58
2019-05-22T23:50:50.191Z,15.57
2019-05-22T23:53:24.242Z,15.51
2019-05-22T23:55:56.914Z,15.48
2019-05-22T23:58:29.414Z,15.43
